Time;durP1;ratioP1;P1;durP2;ratioP2;P2;SDS_P1;SDS_P2;PMS_P1;PMS_P2;Temp;Humidity;BMP_temperature;BMP_pressure;BME280_temperature;BME280_humidity;BME280_pressure;Samples;Min_cycle;Max_cycle;Signal;HPM_P1;HPM_P2
2023/10/27 00:00:07;;;;;;;23.33;16.30;;;12.50;99.90;;;;;;5067257;28;20204;-58
2023/10/27 00:02:38;;;;;;;23.03;15.63;;;12.60;99.90;;;;;;5067391;28;20197;-58
2023/10/27 00:05:04;;;;;;;21.63;15.60;;;12.60;99.90;;;;;;5059537;28;20199;-59
2023/10/27 00:07:29;;;;;;;21.70;15.87;;;12.50;99.90;;;;;;5071386;28;20265;-58
2023/10/27 00:09:55;;;;;;;26.53;16.17;;;12.60;99.90;;;;;;5066608;28;20231;-58
2023/10/27 00:12:20;;;;;;;23.77;15.93;;;12.70;99.90;;;;;;5072244;28;20208;-59
2023/10/27 00:14:46;;;;;;;20.53;15.90;;;12.70;99.90;;;;;;5064637;28;20207;-73
2023/10/27 00:17:11;;;;;;;23.00;15.47;;;12.50;99.90;;;;;;5055607;28;20212;-65
2023/10/27 00:19:37;;;;;;;24.80;15.53;;;12.50;99.90;;;;;;5067307;28;20304;-56
2023/10/27 00:22:03;;;;;;;21.90;15.67;;;12.50;99.90;;;;;;5061698;28;20386;-57
2023/10/27 00:24:28;;;;;;;21.13;15.33;;;12.50;99.90;;;;;;5067890;28;20210;-56
2023/10/27 00:26:54;;;;;;;28.13;17.13;;;12.60;99.90;;;;;;5060712;28;20259;-65
2023/10/27 00:29:19;;;;;;;28.80;17.57;;;12.70;99.90;;;;;;5070247;28;20565;-80
2023/10/27 00:31:45;;;;;;;24.80;17.10;;;12.70;99.90;;;;;;5072107;28;20752;-77
2023/10/27 00:34:10;;;;;;;27.80;16.27;;;12.70;99.90;;;;;;5065524;28;20632;-58
2023/10/27 00:36:36;;;;;;;25.70;16.87;;;12.60;99.90;;;;;;5059969;28;20203;-56
2023/10/27 00:39:01;;;;;;;23.57;15.63;;;12.50;99.90;;;;;;5070498;28;20215;-56
2023/10/27 00:41:28;;;;;;;28.20;16.93;;;12.50;99.90;;;;;;5071476;28;20233;-56
2023/10/27 00:43:53;;;;;;;26.47;16.40;;;12.50;99.90;;;;;;5060267;28;20785;-56
2023/10/27 00:46:19;;;;;;;23.63;16.53;;;12.50;99.90;;;;;;5064737;28;20199;-57
2023/10/27 00:48:44;;;;;;;25.33;17.40;;;12.70;99.90;;;;;;5072583;28;20200;-57
2023/10/27 00:51:11;;;;;;;20.07;14.23;;;12.70;99.90;;;;;;5066034;28;20877;-57
2023/10/27 00:53:38;;;;;;;25.47;18.67;;;12.40;99.90;;;;;;5059226;28;20203;-56
2023/10/27 00:56:04;;;;;;;24.23;17.37;;;12.30;99.90;;;;;;5069313;28;20199;-58
2023/10/27 00:58:30;;;;;;;30.10;19.27;;;12.30;99.90;;;;;;5066718;28;20999;-74
2023/10/27 01:00:56;;;;;;;25.77;17.23;;;12.40;99.90;;;;;;5067505;28;20205;-72
2023/10/27 01:03:22;;;;;;;24.37;17.70;;;12.40;99.90;;;;;;5065997;28;20572;-75
2023/10/27 01:05:48;;;;;;;32.40;18.43;;;12.40;99.90;;;;;;5064403;28;20232;-73
2023/10/27 01:08:13;;;;;;;25.00;18.73;;;12.40;99.90;;;;;;5064949;28;20208;-77
2023/10/27 01:10:39;;;;;;;28.10;18.60;;;12.50;99.90;;;;;;5066759;28;21341;-75
2023/10/27 01:13:05;;;;;;;25.97;17.93;;;12.40;99.90;;;;;;5067260;28;20680;-71
2023/10/27 01:15:30;;;;;;;23.23;16.73;;;12.10;99.90;;;;;;5066695;28;20201;-77
2023/10/27 01:17:56;;;;;;;24.43;17.87;;;11.80;99.90;;;;;;5067274;28;20983;-57
2023/10/27 01:20:22;;;;;;;24.00;16.40;;;11.80;99.90;;;;;;5062974;28;20291;-59
2023/10/27 01:22:48;;;;;;;26.33;16.47;;;12.00;99.90;;;;;;5068763;28;20287;-58
2023/10/27 01:25:15;;;;;;;26.33;16.70;;;12.00;99.90;;;;;;5063547;28;20200;-66
2023/10/27 01:27:41;;;;;;;23.70;16.13;;;12.10;99.90;;;;;;5064607;28;20730;-63
2023/10/27 01:30:08;;;;;;;26.40;16.50;;;12.10;99.90;;;;;;5066028;28;20208;-57
2023/10/27 01:32:34;;;;;;;27.97;16.30;;;12.20;99.90;;;;;;5065187;28;20200;-57
2023/10/27 01:35:00;;;;;;;21.07;15.17;;;12.20;99.90;;;;;;5065315;28;20829;-56
2023/10/27 01:37:25;;;;;;;24.80;15.47;;;12.30;99.90;;;;;;5066840;28;20232;-59
2023/10/27 01:39:51;;;;;;;20.03;14.40;;;12.20;99.90;;;;;;5059941;28;20277;-57
2023/10/27 01:42:16;;;;;;;24.30;15.73;;;12.20;99.90;;;;;;5068276;28;20598;-60
2023/10/27 01:44:42;;;;;;;26.60;16.67;;;12.20;99.90;;;;;;5063468;28;20211;-56
2023/10/27 01:47:07;;;;;;;26.37;15.73;;;12.20;99.90;;;;;;5063141;28;20198;-61
2023/10/27 01:49:33;;;;;;;26.70;16.17;;;12.10;99.90;;;;;;5064811;28;20208;-63
2023/10/27 01:51:58;;;;;;;26.37;16.40;;;12.10;99.90;;;;;;5069222;28;20239;-58
2023/10/27 01:54:24;;;;;;;25.97;16.13;;;12.00;99.90;;;;;;5075264;28;20725;-59
2023/10/27 01:56:50;;;;;;;27.90;16.83;;;11.80;99.90;;;;;;5073455;28;20246;-75
2023/10/27 01:59:16;;;;;;;30.43;18.20;;;11.90;99.90;;;;;;5071080;28;20219;-56
2023/10/27 02:01:42;;;;;;;30.80;18.20;;;11.90;99.90;;;;;;5066971;28;20265;-61
2023/10/27 02:04:07;;;;;;;32.17;18.00;;;12.00;99.90;;;;;;5072523;28;20203;-55
2023/10/27 02:06:33;;;;;;;32.87;19.50;;;11.90;99.90;;;;;;5071712;28;20203;-56
2023/10/27 02:08:58;;;;;;;36.67;17.30;;;11.90;99.90;;;;;;5074694;28;20270;-56
2023/10/27 02:11:24;;;;;;;31.13;18.83;;;12.00;99.90;;;;;;5073647;28;20290;-56
2023/10/27 02:13:50;;;;;;;35.40;19.33;;;11.90;99.90;;;;;;5075621;28;20200;-56
2023/10/27 02:16:15;;;;;;;35.10;19.63;;;11.90;99.90;;;;;;5061796;28;20639;-56
2023/10/27 02:18:41;;;;;;;30.57;19.13;;;12.00;99.90;;;;;;5070082;28;20249;-74
2023/10/27 02:21:06;;;;;;;29.30;17.23;;;12.00;99.90;;;;;;5067414;28;20818;-72
2023/10/27 02:23:32;;;;;;;37.30;19.73;;;12.00;99.90;;;;;;5066841;28;20229;-78
2023/10/27 02:25:58;;;;;;;31.07;18.30;;;12.00;99.90;;;;;;5071195;28;20203;-79
2023/10/27 02:28:23;;;;;;;36.67;18.07;;;12.00;99.90;;;;;;5071941;28;20608;-77
2023/10/27 02:30:49;;;;;;;30.83;17.17;;;11.80;99.90;;;;;;5065088;28;20236;-77
2023/10/27 02:33:15;;;;;;;32.33;18.80;;;11.80;99.90;;;;;;5066919;28;20211;-56
2023/10/27 02:35:40;;;;;;;33.20;18.07;;;12.00;99.90;;;;;;5065046;28;20298;-56
2023/10/27 02:38:06;;;;;;;31.43;20.40;;;12.00;99.90;;;;;;5066209;28;21047;-56
2023/10/27 02:40:31;;;;;;;37.20;19.17;;;12.00;99.90;;;;;;5067027;28;20261;-59
2023/10/27 02:42:57;;;;;;;34.50;19.27;;;12.00;99.90;;;;;;5072898;28;20647;-58
2023/10/27 02:45:22;;;;;;;33.10;19.40;;;11.90;99.90;;;;;;5066344;28;20196;-58
2023/10/27 02:47:48;;;;;;;33.67;19.23;;;12.00;99.90;;;;;;5069032;28;20197;-70
2023/10/27 02:50:14;;;;;;;40.17;20.27;;;11.90;99.90;;;;;;5070871;28;20205;-72
2023/10/27 02:52:39;;;;;;;32.73;20.37;;;11.80;99.90;;;;;;5070615;28;20251;-69
2023/10/27 02:55:06;;;;;;;36.10;19.87;;;11.80;99.90;;;;;;5068235;28;20200;-72
2023/10/27 02:57:31;;;;;;;31.33;20.43;;;11.90;99.90;;;;;;5069127;28;20607;-70
2023/10/27 02:59:57;;;;;;;33.00;20.87;;;12.00;99.90;;;;;;5067542;28;20222;-70
2023/10/27 03:02:23;;;;;;;33.07;19.43;;;11.90;99.90;;;;;;5068695;28;20332;-76
2023/10/27 03:04:49;;;;;;;39.77;21.10;;;11.60;99.90;;;;;;5068106;28;20687;-57
2023/10/27 03:07:16;;;;;;;38.20;21.73;;;11.70;99.90;;;;;;5065855;28;20750;-58
2023/10/27 03:09:41;;;;;;;33.53;19.23;;;11.70;99.90;;;;;;5065491;28;20613;-57
2023/10/27 03:12:07;;;;;;;31.63;20.43;;;11.80;99.90;;;;;;5066533;28;20203;-56
2023/10/27 03:14:33;;;;;;;40.00;22.10;;;11.80;99.90;;;;;;5066268;28;20705;-56
2023/10/27 03:16:58;;;;;;;35.20;20.83;;;11.90;99.90;;;;;;5065613;28;20281;-58
2023/10/27 03:19:24;;;;;;;37.17;22.00;;;11.90;99.90;;;;;;5070519;28;20229;-57
2023/10/27 03:21:49;;;;;;;36.77;21.80;;;12.00;99.90;;;;;;5068060;28;20544;-56
2023/10/27 03:24:14;;;;;;;37.83;20.87;;;11.80;99.90;;;;;;5066228;28;20231;-58
2023/10/27 03:26:40;;;;;;;33.00;20.00;;;11.90;99.90;;;;;;5070951;28;20655;-57
2023/10/27 03:29:06;;;;;;;32.17;19.30;;;11.80;99.90;;;;;;5073335;28;20203;-57
2023/10/27 03:31:31;;;;;;;33.60;18.47;;;11.80;99.90;;;;;;5072719;28;20196;-58
2023/10/27 03:33:57;;;;;;;30.30;20.13;;;11.70;99.90;;;;;;5073171;28;20190;-58
2023/10/27 03:36:22;;;;;;;26.90;18.27;;;11.70;99.90;;;;;;5074672;28;20521;-57
2023/10/27 03:38:48;;;;;;;29.00;19.20;;;11.60;99.90;;;;;;5065418;28;20244;-57
2023/10/27 03:41:14;;;;;;;31.10;19.40;;;11.70;99.90;;;;;;5067533;28;20208;-58
2023/10/27 03:43:39;;;;;;;31.73;18.87;;;11.70;99.90;;;;;;5065761;28;20223;-59
2023/10/27 03:46:07;;;;;;;26.60;17.53;;;11.70;99.90;;;;;;5068417;28;20886;-57
2023/10/27 03:48:34;;;;;;;28.20;17.33;;;11.70;99.90;;;;;;5063224;28;20196;-58
2023/10/27 03:51:03;;;;;;;25.57;17.53;;;11.70;99.90;;;;;;5069449;28;20187;-57
2023/10/27 03:53:29;;;;;;;27.83;17.77;;;11.70;99.90;;;;;;5069376;28;20704;-57
2023/10/27 03:55:54;;;;;;;24.23;17.57;;;11.80;99.90;;;;;;5068712;28;20203;-57
2023/10/27 03:58:20;;;;;;;23.40;16.10;;;11.90;99.90;;;;;;5067888;28;20970;-57
2023/10/27 04:00:45;;;;;;;27.17;17.13;;;11.80;99.90;;;;;;5065798;28;20597;-57
2023/10/27 04:03:11;;;;;;;25.70;16.23;;;11.80;99.90;;;;;;5057822;28;20203;-57
2023/10/27 04:05:37;;;;;;;22.20;16.30;;;11.70;99.90;;;;;;5064152;28;20581;-57
2023/10/27 04:08:04;;;;;;;23.97;16.23;;;11.80;99.90;;;;;;5071963;28;20199;-57
2023/10/27 04:10:34;;;;;;;24.50;16.67;;;11.90;99.90;;;;;;5071002;28;20233;-58
2023/10/27 04:13:00;;;;;;;28.47;17.83;;;11.90;99.90;;;;;;5071825;28;20200;-57
2023/10/27 04:15:26;;;;;;;28.07;18.50;;;11.80;99.90;;;;;;5071466;28;20198;-57
2023/10/27 04:17:52;;;;;;;26.97;19.20;;;11.80;99.90;;;;;;5065374;28;20450;-57
2023/10/27 04:20:17;;;;;;;22.80;16.47;;;11.80;99.90;;;;;;5067049;28;20246;-57
2023/10/27 04:22:43;;;;;;;21.17;15.30;;;11.80;99.90;;;;;;5070709;28;20209;-57
2023/10/27 04:25:09;;;;;;;24.67;16.93;;;11.90;99.90;;;;;;5062932;28;20196;-57
2023/10/27 04:27:36;;;;;;;23.30;17.13;;;11.70;99.90;;;;;;5072756;28;20199;-57
2023/10/27 04:30:07;;;;;;;24.13;15.87;;;11.70;99.90;;;;;;5064608;28;20768;-57
2023/10/27 04:32:36;;;;;;;26.53;17.60;;;11.60;99.90;;;;;;5064498;28;20637;-58
2023/10/27 04:35:03;;;;;;;25.17;17.37;;;11.60;99.90;;;;;;5072271;28;20204;-57
2023/10/27 04:37:30;;;;;;;25.70;16.53;;;11.50;99.90;;;;;;5067069;28;20574;-57
2023/10/27 04:39:56;;;;;;;27.47;17.87;;;11.50;99.90;;;;;;5067782;28;20212;-57
2023/10/27 04:42:22;;;;;;;28.73;18.30;;;11.50;99.90;;;;;;5063315;28;20265;-57
2023/10/27 04:44:48;;;;;;;26.03;18.03;;;11.60;99.90;;;;;;5068505;28;20240;-57
2023/10/27 04:47:13;;;;;;;31.47;19.63;;;11.60;99.90;;;;;;5079798;28;20794;-57
2023/10/27 04:49:39;;;;;;;25.57;17.67;;;11.70;99.90;;;;;;5073227;28;20196;-56
2023/10/27 04:52:05;;;;;;;28.93;17.97;;;11.80;99.90;;;;;;5079131;28;20215;-57
2023/10/27 04:54:32;;;;;;;32.17;19.03;;;11.80;99.90;;;;;;5073364;28;20190;-57
2023/10/27 04:56:58;;;;;;;25.93;17.70;;;11.40;99.90;;;;;;5068749;28;20206;-57
2023/10/27 04:59:23;;;;;;;27.90;17.83;;;11.60;99.90;;;;;;5074417;28;20228;-57
2023/10/27 05:01:49;;;;;;;28.07;17.60;;;11.70;99.90;;;;;;5070804;28;20198;-56
2023/10/27 05:04:14;;;;;;;27.20;17.13;;;11.70;99.90;;;;;;5061846;28;20195;-57
2023/10/27 05:06:43;;;;;;;27.17;16.83;;;11.70;99.90;;;;;;5072321;28;20636;-57
2023/10/27 05:09:10;;;;;;;25.90;17.57;;;11.70;99.90;;;;;;5072829;28;20227;-57
2023/10/27 05:11:35;;;;;;;24.47;17.37;;;11.50;99.90;;;;;;5078682;28;20204;-57
2023/10/27 05:14:01;;;;;;;27.00;16.47;;;11.70;99.90;;;;;;5063473;28;20190;-57
2023/10/27 05:16:26;;;;;;;28.57;18.43;;;11.90;99.90;;;;;;5073620;28;20198;-57
2023/10/27 05:18:52;;;;;;;27.50;17.73;;;11.70;99.90;;;;;;5076361;28;20254;-57
2023/10/27 05:21:18;;;;;;;29.47;18.03;;;11.50;99.90;;;;;;5073689;28;20203;-58
2023/10/27 05:23:43;;;;;;;23.47;17.03;;;11.50;99.90;;;;;;5070657;28;20191;-57
2023/10/27 05:26:09;;;;;;;26.23;15.87;;;11.50;99.90;;;;;;5071130;28;20210;-58
2023/10/27 05:28:34;;;;;;;25.23;16.40;;;11.70;99.90;;;;;;5136013;22;20429;-57
2023/10/27 05:31:00;;;;;;;22.90;16.33;;;11.70;99.90;;;;;;5081137;28;20742;-58
2023/10/27 05:33:25;;;;;;;26.97;16.37;;;11.80;99.90;;;;;;5085258;28;20191;-58
2023/10/27 05:35:51;;;;;;;24.77;15.37;;;11.70;99.90;;;;;;5084878;28;20284;-59
2023/10/27 05:38:18;;;;;;;23.50;15.17;;;11.40;99.90;;;;;;5083654;28;20570;-59
2023/10/27 05:40:43;;;;;;;26.17;15.97;;;11.60;99.90;;;;;;5074291;28;20192;-56
2023/10/27 05:43:09;;;;;;;23.50;14.83;;;11.70;99.90;;;;;;5077757;28;20920;-57
2023/10/27 05:45:34;;;;;;;18.73;14.07;;;11.80;99.90;;;;;;5077793;28;20191;-59
2023/10/27 05:47:59;;;;;;;24.57;16.13;;;11.80;99.90;;;;;;5080227;28;20201;-58
2023/10/27 05:50:25;;;;;;;22.10;15.73;;;11.80;99.90;;;;;;5079569;28;20642;-59
2023/10/27 05:52:50;;;;;;;26.80;16.80;;;11.70;99.90;;;;;;5081589;28;20214;-58
2023/10/27 05:55:16;;;;;;;24.00;15.33;;;11.50;99.90;;;;;;5078749;28;20240;-58
2023/10/27 05:57:41;;;;;;;25.43;16.27;;;11.50;99.90;;;;;;5076708;28;20210;-59
2023/10/27 06:00:08;;;;;;;25.33;15.07;;;11.40;99.90;;;;;;5069801;28;20751;-59
2023/10/27 06:02:33;;;;;;;25.80;17.00;;;11.40;99.90;;;;;;5072436;28;20199;-58
2023/10/27 06:04:59;;;;;;;26.23;17.40;;;11.50;99.90;;;;;;5084887;28;20670;-57
2023/10/27 06:07:24;;;;;;;23.33;15.50;;;11.50;99.90;;;;;;5082837;28;20236;-56
2023/10/27 06:09:50;;;;;;;22.23;16.73;;;11.70;99.90;;;;;;5079416;28;20671;-57
2023/10/27 06:12:15;;;;;;;20.80;14.47;;;11.70;99.90;;;;;;5077544;28;20654;-57
2023/10/27 06:14:44;;;;;;;21.70;15.00;;;11.70;99.90;;;;;;5084252;28;20207;-59
2023/10/27 06:17:11;;;;;;;25.57;15.07;;;11.50;99.90;;;;;;5081897;28;20206;-57
2023/10/27 06:19:37;;;;;;;23.30;15.17;;;11.50;99.90;;;;;;5082769;28;20230;-58
2023/10/27 06:22:03;;;;;;;25.20;15.37;;;11.40;99.90;;;;;;5083381;28;20212;-58
2023/10/27 06:24:29;;;;;;;21.70;14.40;;;11.60;99.90;;;;;;5080791;28;20251;-57
2023/10/27 06:26:54;;;;;;;24.20;14.27;;;11.60;99.90;;;;;;5075046;28;20209;-57
2023/10/27 06:29:21;;;;;;;24.30;14.73;;;11.50;99.90;;;;;;5070997;28;20232;-57
2023/10/27 06:31:47;;;;;;;22.10;13.77;;;11.50;99.90;;;;;;5076043;28;20747;-57
2023/10/27 06:34:12;;;;;;;21.50;14.50;;;11.60;99.90;;;;;;5079312;28;20685;-57
2023/10/27 06:36:38;;;;;;;23.07;14.57;;;11.70;99.90;;;;;;5066889;28;20286;-57
2023/10/27 06:39:04;;;;;;;21.37;14.60;;;11.60;99.90;;;;;;5064855;28;20211;-57
2023/10/27 06:41:29;;;;;;;23.13;13.63;;;11.80;99.90;;;;;;5073651;28;20209;-57
2023/10/27 06:43:55;;;;;;;22.40;14.10;;;11.70;99.90;;;;;;5071744;28;20190;-57
2023/10/27 06:46:20;;;;;;;25.87;14.17;;;11.50;99.90;;;;;;5080119;28;20194;-57
2023/10/27 06:48:46;;;;;;;24.80;14.17;;;11.50;99.90;;;;;;5083778;28;20244;-57
2023/10/27 06:51:11;;;;;;;21.53;14.30;;;11.40;99.90;;;;;;5070588;28;20245;-58
2023/10/27 06:53:37;;;;;;;22.83;14.97;;;11.50;99.90;;;;;;5064162;28;20187;-57
2023/10/27 06:56:03;;;;;;;25.50;16.43;;;11.60;99.90;;;;;;5077399;28;20310;-58
2023/10/27 06:58:29;;;;;;;26.37;16.10;;;11.50;99.90;;;;;;5062446;28;20211;-57
2023/10/27 07:00:56;;;;;;;26.60;17.03;;;11.50;99.90;;;;;;5076959;28;20197;-57
2023/10/27 07:03:22;;;;;;;26.83;16.90;;;11.60;99.90;;;;;;5066819;28;20664;-57
2023/10/27 07:05:47;;;;;;;24.53;15.90;;;11.50;99.90;;;;;;5073043;28;20203;-57
2023/10/27 07:08:13;;;;;;;26.00;16.50;;;11.50;99.90;;;;;;5069868;28;20235;-57
2023/10/27 07:10:41;;;;;;;28.93;17.20;;;11.50;99.90;;;;;;5069353;28;20274;-57
2023/10/27 07:13:06;;;;;;;24.20;16.13;;;11.50;99.90;;;;;;5075269;28;20589;-57
2023/10/27 07:15:32;;;;;;;25.90;15.10;;;11.60;99.90;;;;;;5078395;28;20190;-58
2023/10/27 07:17:57;;;;;;;27.93;16.33;;;11.50;99.90;;;;;;5079448;28;20272;-57
2023/10/27 07:20:23;;;;;;;26.97;15.80;;;11.30;99.90;;;;;;5072574;28;20641;-57
2023/10/27 07:22:49;;;;;;;23.80;16.60;;;11.40;99.90;;;;;;5079478;28;20253;-57
2023/10/27 07:25:14;;;;;;;23.83;15.03;;;11.40;99.90;;;;;;5075085;28;20224;-57
2023/10/27 07:27:40;;;;;;;29.17;17.80;;;11.50;99.90;;;;;;5073843;28;20265;-57
2023/10/27 07:30:06;;;;;;;29.83;18.60;;;11.70;99.90;;;;;;5075224;28;20224;-56
2023/10/27 07:32:32;;;;;;;23.27;16.80;;;11.80;99.90;;;;;;5068568;28;20194;-56
2023/10/27 07:34:58;;;;;;;28.53;17.80;;;11.90;99.90;;;;;;5082936;28;20198;-56
2023/10/27 07:37:23;;;;;;;31.03;18.53;;;11.80;99.90;;;;;;5073941;28;20190;-56
2023/10/27 07:39:49;;;;;;;24.50;16.87;;;11.80;99.90;;;;;;5078650;28;20212;-57
2023/10/27 07:42:14;;;;;;;25.90;18.47;;;11.70;99.90;;;;;;5072365;28;20230;-57
2023/10/27 07:44:40;;;;;;;29.53;19.93;;;11.80;99.90;;;;;;5074143;28;20561;-56
2023/10/27 07:47:06;;;;;;;34.00;19.33;;;11.90;99.90;;;;;;5069005;28;20203;-57
2023/10/27 07:49:32;;;;;;;27.07;18.07;;;11.80;99.90;;;;;;5077292;28;20199;-57
2023/10/27 07:51:57;;;;;;;30.50;19.80;;;11.90;99.90;;;;;;5082608;28;20216;-57
2023/10/27 07:54:23;;;;;;;30.20;18.77;;;11.90;99.90;;;;;;5069481;28;20249;-58
2023/10/27 07:56:48;;;;;;;28.23;19.17;;;12.00;99.90;;;;;;5067968;28;20203;-66
2023/10/27 07:59:14;;;;;;;29.47;18.43;;;12.00;99.90;;;;;;5069853;28;20211;-60
2023/10/27 08:01:40;;;;;;;25.57;18.47;;;12.00;99.90;;;;;;5074433;28;20726;-59
2023/10/27 08:04:06;;;;;;;28.53;17.93;;;11.90;99.90;;;;;;5078318;28;20696;-61
2023/10/27 08:06:32;;;;;;;27.13;16.63;;;12.00;99.90;;;;;;5073817;28;20295;-61
2023/10/27 08:08:58;;;;;;;24.77;17.57;;;11.80;99.90;;;;;;5080257;28;20182;-65
2023/10/27 08:11:24;;;;;;;24.43;17.57;;;11.90;99.90;;;;;;5077838;28;20200;-63
2023/10/27 08:13:50;;;;;;;27.20;17.73;;;11.70;99.90;;;;;;5075427;28;20187;-63
2023/10/27 08:16:15;;;;;;;30.60;17.23;;;11.70;99.90;;;;;;5068813;28;20203;-63
2023/10/27 08:18:41;;;;;;;25.57;16.43;;;11.80;99.90;;;;;;5062610;28;20288;-64
2023/10/27 08:21:06;;;;;;;24.40;17.43;;;11.70;99.90;;;;;;5063098;28;20200;-60
2023/10/27 08:23:32;;;;;;;33.63;18.93;;;11.60;99.90;;;;;;5062565;28;20239;-64
2023/10/27 08:25:57;;;;;;;27.10;17.90;;;11.80;99.90;;;;;;5065679;28;20203;-66
2023/10/27 08:28:24;;;;;;;26.00;17.23;;;12.00;99.90;;;;;;5059006;28;20234;-59
2023/10/27 08:30:49;;;;;;;27.87;17.80;;;12.10;99.90;;;;;;5064052;28;20602;-57
2023/10/27 08:33:15;;;;;;;24.97;16.80;;;12.10;99.90;;;;;;5066612;28;20221;-64
2023/10/27 08:35:40;;;;;;;25.83;18.03;;;12.10;99.90;;;;;;5068836;28;20195;-68
2023/10/27 08:38:06;;;;;;;24.00;16.17;;;11.90;99.90;;;;;;5060268;28;20208;-58
2023/10/27 08:40:32;;;;;;;24.47;16.13;;;11.90;99.90;;;;;;5064110;28;20667;-62
2023/10/27 08:42:58;;;;;;;27.47;16.83;;;11.80;99.90;;;;;;5065347;28;20603;-62
2023/10/27 08:45:24;;;;;;;24.07;15.83;;;12.00;99.90;;;;;;5065592;28;20194;-67
2023/10/27 08:47:50;;;;;;;24.67;16.87;;;12.10;99.90;;;;;;5066225;28;20933;-62
2023/10/27 08:50:16;;;;;;;26.23;17.37;;;12.10;99.90;;;;;;5068054;28;20205;-62
2023/10/27 08:52:42;;;;;;;22.23;16.67;;;12.20;99.90;;;;;;5067786;28;20281;-59
2023/10/27 08:55:10;;;;;;;22.63;15.93;;;12.20;99.90;;;;;;5071565;28;20199;-75
2023/10/27 08:57:36;;;;;;;24.90;17.67;;;12.20;99.90;;;;;;5072842;28;20200;-67
2023/10/27 09:00:05;;;;;;;23.13;15.23;;;12.20;99.90;;;;;;5064517;28;20303;-61
2023/10/27 09:02:32;;;;;;;22.90;16.00;;;12.10;99.90;;;;;;5074874;28;20204;-61
2023/10/27 09:05:06;;;;;;;21.07;16.17;;;12.00;99.90;;;;;;5071642;28;20661;-61
2023/10/27 09:07:32;;;;;;;24.00;16.30;;;12.00;99.90;;;;;;5068244;28;20598;-61
2023/10/27 09:09:59;;;;;;;23.63;17.43;;;12.00;99.90;;;;;;5071130;28;20256;-60
2023/10/27 09:12:27;;;;;;;21.00;14.80;;;12.00;99.90;;;;;;5071475;28;20211;-62
2023/10/27 09:15:01;;;;;;;23.47;15.53;;;12.10;99.90;;;;;;5074620;28;20203;-61
2023/10/27 09:17:29;;;;;;;22.00;14.83;;;12.20;99.90;;;;;;5074913;28;20206;-60
2023/10/27 09:20:09;;;;;;;23.80;16.00;;;12.20;99.90;;;;;;5070916;28;20223;-62
2023/10/27 09:22:36;;;;;;;20.17;14.27;;;12.30;99.90;;;;;;5074184;28;20209;-62
2023/10/27 09:25:12;;;;;;;21.50;15.43;;;12.20;99.90;;;;;;5072998;28;20264;-62
2023/10/27 09:27:43;;;;;;;21.57;14.47;;;12.10;99.90;;;;;;5074838;28;20204;-61
2023/10/27 09:30:12;;;;;;;23.37;16.37;;;12.20;99.90;;;;;;5060722;28;20229;-65
2023/10/27 09:32:40;;;;;;;22.43;14.63;;;12.20;99.90;;;;;;5072368;28;20256;-68
2023/10/27 09:35:17;;;;;;;19.57;13.57;;;12.20;99.90;;;;;;5065925;28;20184;-61
2023/10/27 09:37:43;;;;;;;24.03;14.93;;;12.10;99.90;;;;;;5070199;28;20197;-61
2023/10/27 09:40:11;;;;;;;21.67;15.60;;;12.10;99.90;;;;;;5071918;28;20727;-62
2023/10/27 09:42:37;;;;;;;26.40;15.67;;;12.20;99.90;;;;;;5071429;28;20194;-61
2023/10/27 09:45:07;;;;;;;22.17;14.73;;;12.20;99.90;;;;;;5061812;28;20205;-61
2023/10/27 09:47:38;;;;;;;21.50;16.07;;;12.20;99.90;;;;;;5074867;28;20360;-61
2023/10/27 09:50:06;;;;;;;28.73;17.33;;;12.30;99.90;;;;;;5100422;22;20253;-61
2023/10/27 09:52:33;;;;;;;29.03;17.40;;;12.30;99.90;;;;;;5056290;28;20271;-60
2023/10/27 09:55:01;;;;;;;24.13;16.67;;;12.10;99.90;;;;;;5039788;28;20307;-61
2023/10/27 09:57:28;;;;;;;22.53;15.20;;;12.30;99.90;;;;;;5043846;28;20796;-61
2023/10/27 09:59:55;;;;;;;19.73;14.97;;;12.40;99.90;;;;;;5044693;28;20232;-61
2023/10/27 10:02:23;;;;;;;23.33;14.27;;;12.30;99.90;;;;;;5049973;28;20253;-61
2023/10/27 10:04:51;;;;;;;21.80;15.40;;;12.30;99.90;;;;;;5055773;28;20289;-61
2023/10/27 10:07:34;;;;;;;20.93;14.60;;;12.40;99.90;;;;;;5048177;28;20205;-61
2023/10/27 10:10:26;;;;;;;18.77;14.73;;;12.10;99.90;;;;;;5048116;28;20193;-61
2023/10/27 10:13:12;;;;;;;18.67;13.53;;;11.90;99.90;;;;;;5050681;28;20344;-62
2023/10/27 10:15:45;;;;;;;20.47;13.47;;;12.10;99.90;;;;;;5058016;28;20196;-62
2023/10/27 10:18:20;;;;;;;22.70;15.63;;;12.10;99.90;;;;;;5053675;28;20232;-61
2023/10/27 10:20:49;;;;;;;24.40;15.37;;;12.20;99.90;;;;;;5044133;28;20252;-61
2023/10/27 10:23:16;;;;;;;19.07;14.20;;;12.40;99.90;;;;;;5049863;28;20207;-61
2023/10/27 10:25:52;;;;;;;20.17;14.77;;;12.40;99.90;;;;;;5058402;28;20224;-60
2023/10/27 10:28:17;;;;;;;19.20;15.23;;;12.30;99.90;;;;;;5040063;28;20290;-60
2023/10/27 10:31:06;;;;;;;23.37;14.50;;;12.20;99.90;;;;;;5041904;28;20236;-60
2023/10/27 10:33:32;;;;;;;17.47;13.73;;;12.40;99.90;;;;;;5058307;28;20208;-61
2023/10/27 10:36:19;;;;;;;17.30;13.50;;;12.40;99.90;;;;;;5061061;28;20719;-61
2023/10/27 10:38:56;;;;;;;18.17;13.90;;;12.20;99.90;;;;;;5045274;28;20223;-61
2023/10/27 10:41:52;;;;;;;21.63;14.10;;;12.50;99.90;;;;;;5058892;28;20201;-61
2023/10/27 10:44:17;;;;;;;20.10;13.33;;;12.60;99.90;;;;;;5053743;28;20662;-62
2023/10/27 10:46:44;;;;;;;17.13;13.87;;;12.60;99.90;;;;;;5061818;28;20246;-62
2023/10/27 10:49:12;;;;;;;16.87;13.27;;;12.60;99.90;;;;;;5052765;28;20277;-61
2023/10/27 10:51:37;;;;;;;19.97;12.50;;;12.60;99.90;;;;;;5050194;28;20279;-61
2023/10/27 10:54:10;;;;;;;17.20;12.37;;;12.40;99.90;;;;;;5051172;28;20243;-61
2023/10/27 10:56:36;;;;;;;16.13;12.43;;;12.50;99.90;;;;;;5043860;28;20550;-61
2023/10/27 10:59:03;;;;;;;17.33;11.50;;;12.40;99.90;;;;;;5042398;28;20269;-61
2023/10/27 11:01:29;;;;;;;16.57;12.13;;;12.20;99.90;;;;;;5039433;28;20197;-61
2023/10/27 11:03:56;;;;;;;15.83;11.80;;;12.10;99.90;;;;;;5049964;28;20216;-61
2023/10/27 11:06:22;;;;;;;15.20;11.73;;;12.20;99.90;;;;;;5059827;28;20254;-60
2023/10/27 11:08:49;;;;;;;17.20;10.97;;;12.10;99.90;;;;;;5060686;28;20262;-61
2023/10/27 11:11:18;;;;;;;16.27;11.83;;;12.10;99.90;;;;;;5044425;28;20191;-61
2023/10/27 11:13:46;;;;;;;14.83;10.57;;;12.00;99.90;;;;;;5058309;28;20204;-61
2023/10/27 11:16:23;;;;;;;14.13;10.30;;;12.00;99.90;;;;;;5050177;28;20208;-61
2023/10/27 11:18:51;;;;;;;13.67;11.43;;;12.20;99.90;;;;;;5054579;28;20717;-61
2023/10/27 11:21:23;;;;;;;15.03;10.60;;;12.20;99.90;;;;;;5059840;28;20195;-61
2023/10/27 11:23:49;;;;;;;9.60;8.60;;;12.30;99.90;;;;;;5057340;28;20253;-61
2023/10/27 11:26:16;;;;;;;10.60;8.80;;;12.40;99.90;;;;;;5062099;28;20192;-62
2023/10/27 11:28:43;;;;;;;14.70;9.83;;;12.30;99.90;;;;;;5049590;28;20201;-60
2023/10/27 11:31:16;;;;;;;10.10;8.33;;;12.30;99.90;;;;;;5046998;28;20206;-60
2023/10/27 11:34:04;;;;;;;10.90;9.00;;;12.40;99.90;;;;;;5047061;28;20260;-61
2023/10/27 11:36:34;;;;;;;10.13;8.20;;;12.50;99.90;;;;;;5042212;28;20211;-61
2023/10/27 11:39:18;;;;;;;10.00;8.97;;;12.50;99.90;;;;;;5049003;28;20477;-69
2023/10/27 11:41:54;;;;;;;12.37;9.47;;;12.40;99.90;;;;;;5046738;28;20198;-62
2023/10/27 11:44:21;;;;;;;9.60;7.80;;;12.40;99.90;;;;;;5057712;28;20191;-62
2023/10/27 11:46:52;;;;;;;8.67;7.63;;;12.40;99.90;;;;;;5055356;28;20184;-61
2023/10/27 11:49:18;;;;;;;10.27;7.80;;;12.40;99.90;;;;;;5055644;28;20749;-61
2023/10/27 11:51:48;;;;;;;12.77;8.57;;;12.50;99.90;;;;;;5064470;28;20207;-60
2023/10/27 11:54:17;;;;;;;10.10;8.70;;;12.60;99.90;;;;;;5046775;28;20197;-60
2023/10/27 11:56:43;;;;;;;9.50;8.50;;;12.50;99.90;;;;;;5051204;28;20285;-61
2023/10/27 11:59:10;;;;;;;10.10;7.93;;;12.50;99.90;;;;;;5056745;28;20223;-61
2023/10/27 12:01:36;;;;;;;10.40;8.97;;;12.50;99.90;;;;;;5058604;28;20198;-62
2023/10/27 12:04:02;;;;;;;11.27;8.10;;;12.60;99.90;;;;;;5045966;28;20199;-62
2023/10/27 12:06:27;;;;;;;11.23;8.43;;;12.60;99.90;;;;;;5039877;28;20201;-68
2023/10/27 12:08:53;;;;;;;12.43;9.13;;;12.40;99.90;;;;;;5044541;28;20200;-62
2023/10/27 12:11:20;;;;;;;10.87;9.10;;;12.60;99.90;;;;;;5042405;28;20279;-62
2023/10/27 12:13:46;;;;;;;11.70;9.60;;;12.50;99.90;;;;;;5051141;28;20767;-62
2023/10/27 12:16:11;;;;;;;10.90;8.83;;;12.40;99.90;;;;;;5044065;28;20280;-62
2023/10/27 12:18:37;;;;;;;12.17;10.07;;;12.50;99.90;;;;;;5041760;28;20340;-62
2023/10/27 12:21:03;;;;;;;12.73;9.00;;;12.60;99.90;;;;;;5049184;28;20199;-62
2023/10/27 12:23:35;;;;;;;13.53;10.83;;;12.50;99.90;;;;;;5056142;28;20772;-62
2023/10/27 12:26:01;;;;;;;9.57;8.57;;;12.60;99.90;;;;;;5053191;28;20229;-61